Time,TemperatureF,DewpointF,PressureIn,WindDirection,WindDirectionDegrees,WindSpeedMPH,WindSpeedGustMPH,Humidity,HourlyPrecipIn,Conditions,Clouds,dailyrainin,SoftwareType,DateUTC
2013-03-28 00:00:00,39.0,27.5,32.17,NW,315,5.0,11.0,63,0.00,,BKN100,0.00,VWS V14.00,2013-03-28 04:00:00,
2013-03-28 00:10:00,39.0,27.9,32.16,NW,315,6.0,10.0,64,0.00,,BKN100,0.00,VWS V14.00,2013-03-28 04:10:00,
2013-03-28 00:20:00,39.0,27.9,32.17,NW,315,5.0,11.0,64,0.00,,BKN100,0.00,VWS V14.00,2013-03-28 04:20:00,
2013-03-28 00:30:00,38.0,27.3,32.16,NW,315,6.0,11.0,65,0.00,,BKN100,0.00,VWS V14.00,2013-03-28 04:30:00,
2013-03-28 00:40:00,38.0,27.7,32.17,NW,315,10.0,11.0,66,0.00,,BKN100,0.00,VWS V14.00,2013-03-28 04:40:00,
2013-03-28 00:50:00,38.0,27.7,32.17,NW,315,8.0,12.0,66,0.00,,BKN100,0.00,VWS V14.00,2013-03-28 04:50:00,
2013-03-28 01:00:00,38.0,28.4,32.17,WNW,292,6.0,12.0,68,0.00,,BKN100,0.00,VWS V14.00,2013-03-28 05:00:00,
2013-03-28 01:10:00,38.0,28.8,32.17,NW,315,7.0,14.0,69,0.00,,CLR,0.00,VWS V14.00,2013-03-28 05:10:00,
2013-03-28 01:20:00,38.0,29.1,32.17,NW,315,7.0,11.0,70,0.00,,CLR,0.00,VWS V14.00,2013-03-28 05:20:00,
2013-03-28 01:30:00,37.0,28.8,32.17,NW,315,9.0,11.0,72,0.00,,CLR,0.00,VWS V14.00,2013-03-28 05:30:00,
2013-03-28 01:40:00,37.0,29.2,32.17,NNW,337,4.0,12.0,73,0.00,,CLR,0.00,VWS V14.00,2013-03-28 05:40:00,
2013-03-28 01:50:00,37.0,29.5,32.17,NNW,337,8.0,12.0,74,0.00,,CLR,0.00,VWS V14.00,2013-03-28 05:50:00,
2013-03-28 02:00:00,37.0,29.5,32.17,NNW,337,9.0,12.0,74,0.00,,CLR,0.00,VWS V14.00,2013-03-28 06:00:00,
2013-03-28 02:10:00,37.0,29.8,32.17,NW,315,10.0,10.0,75,0.00,,CLR,0.00,VWS V14.00,2013-03-28 06:10:00,
2013-03-28 02:20:00,37.0,30.1,32.17,NNW,337,7.0,11.0,76,0.00,,CLR,0.00,VWS V14.00,2013-03-28 06:20:00,
2013-03-28 02:30:00,36.0,29.2,32.18,North,360,3.0,10.0,76,0.00,,CLR,0.00,VWS V14.00,2013-03-28 06:30:00,
2013-03-28 02:40:00,36.0,29.2,32.17,NW,315,3.0,10.0,76,0.00,,CLR,0.00,VWS V14.00,2013-03-28 06:40:00,
2013-03-28 02:50:00,36.0,29.5,32.17,NNW,337,3.0,8.0,77,0.00,,CLR,0.00,VWS V14.00,2013-03-28 06:50:00,
2013-03-28 03:00:00,35.0,29.2,32.18,NNW,337,4.0,8.0,79,0.00,,CLR,0.00,VWS V14.00,2013-03-28 07:00:00,
2013-03-28 03:10:00,35.0,29.2,32.18,NW,315,3.0,10.0,79,0.00,,CLR,0.00,VWS V14.00,2013-03-28 07:10:00,
2013-03-28 03:20:00,35.0,29.5,32.18,NNW,337,6.0,9.0,80,0.00,,CLR,0.00,VWS V14.00,2013-03-28 07:20:00,
2013-03-28 03:30:00,34.0,28.8,32.18,NW,315,1.0,9.0,81,0.00,,CLR,0.00,VWS V14.00,2013-03-28 07:30:00,
2013-03-28 03:40:00,35.0,29.8,32.17,North,360,4.0,8.0,81,0.00,,CLR,0.00,VWS V14.00,2013-03-28 07:40:00,
2013-03-28 03:50:00,34.0,29.1,32.18,NW,315,3.0,9.0,82,0.00,,CLR,0.00,VWS V14.00,2013-03-28 07:50:00,
2013-03-28 04:00:00,34.0,29.4,32.18,NW,315,4.0,6.0,83,0.00,,CLR,0.00,VWS V14.00,2013-03-28 08:00:00,
2013-03-28 04:10:00,34.0,29.7,32.18,NNW,337,3.0,6.0,84,0.00,,CLR,0.00,VWS V14.00,2013-03-28 08:10:00,
2013-03-28 04:20:00,34.0,29.7,32.18,NW,315,2.0,8.0,84,0.00,,CLR,0.00,VWS V14.00,2013-03-28 08:20:00,
2013-03-28 04:30:00,33.0,29.3,32.18,NW,315,4.0,6.0,86,0.00,,CLR,0.00,VWS V14.00,2013-03-28 08:30:00,
2013-03-28 04:40:00,33.0,29.3,32.19,NW,315,3.0,5.0,86,0.00,,CLR,0.00,VWS V14.00,2013-03-28 08:40:00,
2013-03-28 04:50:00,33.0,29.3,32.18,NW,315,3.0,5.0,86,0.00,,CLR,0.00,VWS V14.00,2013-03-28 08:50:00,
2013-03-28 05:00:00,33.0,29.6,32.18,NNW,337,3.0,6.0,87,0.00,,CLR,0.00,VWS V14.00,2013-03-28 09:00:00,
2013-03-28 05:10:00,33.0,30.1,32.19,NW,315,2.0,5.0,89,0.00,,BKN048,0.00,VWS V14.00,2013-03-28 09:10:00,
2013-03-28 05:20:00,33.0,29.8,32.19,WNW,292,4.0,6.0,88,0.00,,BKN048,0.00,VWS V14.00,2013-03-28 09:20:00,
2013-03-28 05:30:00,33.0,30.1,32.20,NW,315,2.0,5.0,89,0.00,,BKN048,0.00,VWS V14.00,2013-03-28 09:30:00,
2013-03-28 05:40:00,33.0,30.1,32.21,WNW,292,5.0,5.0,89,0.00,,BKN048,0.00,VWS V14.00,2013-03-28 09:40:00,
2013-03-28 05:50:00,33.0,30.1,32.21,NW,315,2.0,5.0,89,0.00,,BKN048,0.00,VWS V14.00,2013-03-28 09:50:00,
2013-03-28 06:00:00,33.0,30.1,32.21,NNW,337,4.0,7.0,89,0.00,,BKN048,0.00,VWS V14.00,2013-03-28 10:00:00,
2013-03-28 06:10:00,33.0,30.1,32.22,NW,315,4.0,6.0,89,0.00,,OVC038,0.00,VWS V14.00,2013-03-28 10:10:00,
2013-03-28 06:20:00,33.0,30.1,32.23,NW,315,4.0,5.0,89,0.00,,OVC038,0.00,VWS V14.00,2013-03-28 10:20:00,
2013-03-28 06:30:00,33.0,30.1,32.23,NNW,337,1.0,5.0,89,0.00,,OVC038,0.00,VWS V14.00,2013-03-28 10:30:00,
2013-03-28 06:40:00,33.0,30.4,32.23,NNW,337,3.0,5.0,90,0.00,,OVC045,0.00,VWS V14.00,2013-03-28 10:40:00,
2013-03-28 06:50:00,34.0,31.1,32.24,NNW,337,4.0,6.0,89,0.00,,OVC045,0.00,VWS V14.00,2013-03-28 10:50:00,
2013-03-28 07:00:00,34.0,31.1,32.25,North,360,2.0,6.0,89,0.00,,OVC045,0.00,VWS V14.00,2013-03-28 11:00:00,
2013-03-28 07:10:00,34.0,30.5,32.25,NNW,337,2.0,7.0,87,0.00,,OVC025,0.00,VWS V14.00,2013-03-28 11:10:00,
2013-03-28 07:20:00,35.0,31.5,32.25,NNE,22,6.0,7.0,87,0.00,,OVC025,0.00,VWS V14.00,2013-03-28 11:20:00,
2013-03-28 07:30:00,35.0,31.2,32.26,North,360,6.0,8.0,86,0.00,,OVC025,0.00,VWS V14.00,2013-03-28 11:30:00,
2013-03-28 07:40:00,36.0,32.5,32.26,North,360,3.0,9.0,87,0.00,,OVC095,0.00,VWS V14.00,2013-03-28 11:40:00,
2013-03-28 07:50:00,36.0,32.5,32.27,NNW,337,6.0,8.0,87,0.00,,OVC095,0.00,VWS V14.00,2013-03-28 11:50:00,
2013-03-28 08:00:00,36.0,32.8,32.27,NW,315,6.0,11.0,88,0.00,,OVC095,0.00,VWS V14.00,2013-03-28 12:00:00,
2013-03-28 08:10:00,36.0,33.1,32.28,NW,315,5.0,10.0,89,0.00,,OVC100,0.00,VWS V14.00,2013-03-28 12:10:00,
2013-03-28 08:20:00,36.0,33.1,32.29,NW,315,4.0,9.0,89,0.00,,OVC100,0.00,VWS V14.00,2013-03-28 12:20:00,
2013-03-28 08:30:00,37.0,33.5,32.29,North,360,7.0,10.0,87,0.00,,OVC100,0.00,VWS V14.00,2013-03-28 12:30:00,
2013-03-28 08:40:00,37.0,33.5,32.29,NW,315,8.0,12.0,87,0.00,,OVC100,0.00,VWS V14.00,2013-03-28 12:40:00,
2013-03-28 08:50:00,37.0,33.5,32.29,NW,315,6.0,11.0,87,0.00,,OVC100,0.00,VWS V14.00,2013-03-28 12:50:00,
2013-03-28 09:00:00,37.0,33.5,32.30,NW,315,7.0,12.0,87,0.00,,OVC100,0.00,VWS V14.00,2013-03-28 13:00:00,
2013-03-28 09:10:00,38.0,34.8,32.29,NNE,22,4.0,14.0,88,0.00,,OVC100,0.00,VWS V14.00,2013-03-28 13:10:00,
2013-03-28 09:20:00,38.0,34.5,32.30,NNW,337,5.0,11.0,87,0.00,,OVC100,0.00,VWS V14.00,2013-03-28 13:20:00,
2013-03-28 09:30:00,39.0,35.5,32.30,North,360,8.0,11.0,87,0.00,,OVC100,0.00,VWS V14.00,2013-03-28 13:30:00,
2013-03-28 09:40:00,39.0,35.2,32.31,NNW,337,7.0,10.0,86,0.00,,OVC100,0.00,VWS V14.00,2013-03-28 13:40:00,
2013-03-28 09:50:00,40.0,35.3,32.31,NNE,22,5.0,13.0,83,0.00,,OVC100,0.00,VWS V14.00,2013-03-28 13:50:00,
2013-03-28 10:00:00,40.0,34.7,32.32,NE,45,4.0,11.0,81,0.00,,OVC100,0.00,VWS V14.00,2013-03-28 14:00:00,
2013-03-28 10:10:00,41.0,34.7,32.32,North,360,3.0,11.0,78,0.00,,OVC090,0.00,VWS V14.00,2013-03-28 14:10:00,
2013-03-28 10:20:00,42.0,34.3,32.31,East,90,5.0,10.0,74,0.00,,OVC090,0.00,VWS V14.00,2013-03-28 14:20:00,
2013-03-28 10:30:00,42.0,34.0,32.31,NW,315,6.0,12.0,73,0.00,,OVC090,0.00,VWS V14.00,2013-03-28 14:30:00,
2013-03-28 10:40:00,42.0,33.3,32.32,NW,315,3.0,11.0,71,0.00,,OVC090,0.00,VWS V14.00,2013-03-28 14:40:00,
2013-03-28 10:50:00,42.0,32.9,32.31,NNW,337,5.0,14.0,70,0.00,,OVC090,0.00,VWS V14.00,2013-03-28 14:50:00,
2013-03-28 11:00:00,43.0,32.8,32.32,NNW,337,10.0,13.0,67,0.00,,OVC090,0.00,VWS V14.00,2013-03-28 15:00:00,
2013-03-28 11:10:00,43.0,33.5,32.32,NE,45,5.0,14.0,69,0.00,,OVC095,0.00,VWS V14.00,2013-03-28 15:10:00,
2013-03-28 11:20:00,43.0,32.8,32.33,East,90,2.0,10.0,67,0.00,,OVC095,0.00,VWS V14.00,2013-03-28 15:20:00,
2013-03-28 11:30:00,43.0,32.4,32.33,North,360,4.0,12.0,66,0.00,,OVC095,0.00,VWS V14.00,2013-03-28 15:30:00,
2013-03-28 11:40:00,44.0,33.4,32.32,North,360,2.0,10.0,66,0.00,,OVC095,0.00,VWS V14.00,2013-03-28 15:40:00,
2013-03-28 11:50:00,45.0,34.0,32.32,NNW,337,7.0,11.0,65,0.00,,OVC095,0.00,VWS V14.00,2013-03-28 15:50:00,
2013-03-28 12:00:00,45.0,33.6,32.32,NNW,337,3.0,13.0,64,0.00,,OVC095,0.00,VWS V14.00,2013-03-28 16:00:00,
2013-03-28 12:10:00,44.0,33.4,32.32,NNW,337,6.0,12.0,66,0.00,,OVC048,0.00,VWS V14.00,2013-03-28 16:10:00,
2013-03-28 12:20:00,43.0,33.2,32.31,NE,45,6.0,12.0,68,0.00,,OVC048,0.00,VWS V14.00,2013-03-28 16:20:00,
2013-03-28 12:30:00,43.0,33.5,32.31,NW,315,3.0,9.0,69,0.00,,OVC048,0.00,VWS V14.00,2013-03-28 16:30:00,
2013-03-28 12:40:00,44.0,33.8,32.31,NE,45,4.0,9.0,67,0.00,,OVC048,0.00,VWS V14.00,2013-03-28 16:40:00,
2013-03-28 12:50:00,45.0,32.8,32.31,ENE,67,4.0,9.0,62,0.00,,OVC048,0.00,VWS V14.00,2013-03-28 16:50:00,
2013-03-28 13:00:00,44.0,31.8,32.32,ENE,67,4.0,7.0,62,0.00,,OVC048,0.00,VWS V14.00,2013-03-28 17:00:00,
2013-03-28 13:10:00,43.0,31.7,32.31,ENE,67,4.0,11.0,64,0.00,,OVC060,0.00,VWS V14.00,2013-03-28 17:10:00,
2013-03-28 13:20:00,43.0,32.4,32.31,NW,315,6.0,8.0,66,0.00,,OVC060,0.00,VWS V14.00,2013-03-28 17:20:00,
2013-03-28 13:30:00,43.0,32.1,32.31,NNE,22,4.0,9.0,65,0.00,,OVC060,0.00,VWS V14.00,2013-03-28 17:30:00,
2013-03-28 13:40:00,43.0,31.7,32.31,ENE,67,7.0,7.0,64,0.00,,OVC060,0.00,VWS V14.00,2013-03-28 17:40:00,
2013-03-28 13:50:00,44.0,33.0,32.31,ENE,67,2.0,8.0,65,0.00,,OVC060,0.00,VWS V14.00,2013-03-28 17:50:00,
2013-03-28 14:00:00,44.0,32.6,32.31,NE,45,3.0,6.0,64,0.00,,OVC060,0.00,VWS V14.00,2013-03-28 18:00:00,
2013-03-28 14:10:00,44.0,31.4,32.31,North,360,3.0,9.0,61,0.00,,OVC055,0.00,VWS V14.00,2013-03-28 18:10:00,
2013-03-28 14:20:00,43.0,32.8,32.32,NE,45,4.0,8.0,67,0.00,,OVC055,0.00,VWS V14.00,2013-03-28 18:20:00,
2013-03-28 14:30:00,41.0,34.0,32.30,East,90,1.0,10.0,76,0.00,,OVC055,0.00,VWS V14.00,2013-03-28 18:30:00,
2013-03-28 14:40:00,41.0,34.0,32.30,East,90,4.0,5.0,76,0.00,,OVC055,0.00,VWS V14.00,2013-03-28 18:40:00,
2013-03-28 14:50:00,41.0,34.7,32.30,SE,135,3.0,6.0,78,0.00,,OVC055,0.00,VWS V14.00,2013-03-28 18:50:00,
2013-03-28 15:00:00,42.0,34.3,32.30,SSE,157,4.0,6.0,74,0.00,,OVC055,0.00,VWS V14.00,2013-03-28 19:00:00,
2013-03-28 15:10:00,42.0,34.0,32.31,SE,135,3.0,4.0,73,0.00,,OVC075,0.00,VWS V14.00,2013-03-28 19:10:00,
2013-03-28 15:20:00,42.0,35.0,32.31,West,270,3.0,4.0,76,0.00,,OVC075,0.00,VWS V14.00,2013-03-28 19:20:00,
2013-03-28 15:30:00,40.0,36.5,32.32,SW,225,6.0,10.0,87,0.01,,OVC075,0.03,VWS V14.00,2013-03-28 19:30:00,
2013-03-28 15:40:00,39.0,36.3,32.32,SW,225,5.0,9.0,90,0.01,,OVC075,0.03,VWS V14.00,2013-03-28 19:40:00,
2013-03-28 15:50:00,40.0,37.3,32.31,WSW,247,5.0,9.0,90,0.01,,OVC075,0.03,VWS V14.00,2013-03-28 19:50:00,
2013-03-28 16:00:00,40.0,37.3,32.31,WSW,247,7.0,9.0,90,0.00,,OVC075,0.03,VWS V14.00,2013-03-28 20:00:00,
2013-03-28 16:10:00,39.0,36.0,32.31,WSW,247,4.0,10.0,89,0.00,,OVC080,0.03,VWS V14.00,2013-03-28 20:10:00,
2013-03-28 16:20:00,40.0,37.0,32.30,WSW,247,6.0,10.0,89,0.00,,OVC080,0.03,VWS V14.00,2013-03-28 20:20:00,
2013-03-28 16:30:00,39.0,36.0,32.31,WSW,247,7.0,10.0,89,0.00,,OVC080,0.03,VWS V14.00,2013-03-28 20:30:00,
2013-03-28 16:40:00,38.0,35.3,32.31,WSW,247,7.0,11.0,90,0.00,,OVC080,0.03,VWS V14.00,2013-03-28 20:40:00,
2013-03-28 16:50:00,38.0,35.3,32.31,SW,225,3.0,10.0,90,0.00,,OVC080,0.03,VWS V14.00,2013-03-28 20:50:00,
2013-03-28 17:00:00,39.0,36.0,32.31,WSW,247,5.0,10.0,89,0.00,,OVC080,0.03,VWS V14.00,2013-03-28 21:00:00,
2013-03-28 17:10:00,39.0,36.0,32.32,WSW,247,5.0,10.0,89,0.00,,-RA,0.03,VWS V14.00,2013-03-28 21:10:00,
2013-03-28 17:20:00,40.0,37.0,32.31,WSW,247,7.0,9.0,89,0.00,,-RA,0.03,VWS V14.00,2013-03-28 21:20:00,
2013-03-28 17:30:00,40.0,36.7,32.32,West,270,7.0,10.0,88,0.00,,-RA,0.03,VWS V14.00,2013-03-28 21:30:00,
2013-03-28 17:40:00,40.0,36.2,32.33,NW,315,2.0,10.0,86,0.00,,-RA,0.03,VWS V14.00,2013-03-28 21:40:00,
2013-03-28 17:50:00,40.0,35.6,32.33,West,270,4.0,8.0,84,0.00,,-RA,0.03,VWS V14.00,2013-03-28 21:50:00,
2013-03-28 18:00:00,40.0,35.3,32.33,West,270,6.0,8.0,83,0.00,,-RA,0.03,VWS V14.00,2013-03-28 22:00:00,
2013-03-28 18:10:00,41.0,36.2,32.33,West,270,4.0,7.0,83,0.00,,OVC055,0.03,VWS V14.00,2013-03-28 22:10:00,
2013-03-28 18:20:00,40.0,35.9,32.34,West,270,3.0,8.0,85,0.00,,OVC055,0.03,VWS V14.00,2013-03-28 22:20:00,
2013-03-28 18:30:00,40.0,35.9,32.34,West,270,3.0,5.0,85,0.00,,OVC055,0.03,VWS V14.00,2013-03-28 22:30:00,
2013-03-28 18:40:00,40.0,35.3,32.34,West,270,3.0,4.0,83,0.00,,OVC055,0.03,VWS V14.00,2013-03-28 22:40:00,
2013-03-28 18:50:00,40.0,34.7,32.35,WNW,292,3.0,4.0,81,0.00,,OVC055,0.03,VWS V14.00,2013-03-28 22:50:00,
2013-03-28 19:00:00,40.0,34.7,32.35,WNW,292,0.0,4.0,81,0.00,,OVC055,0.03,VWS V14.00,2013-03-28 23:00:00,
2013-03-28 19:10:00,40.0,34.7,32.35,WNW,292,2.0,3.0,81,0.00,,OVC075,0.03,VWS V14.00,2013-03-28 23:10:00,
2013-03-28 19:20:00,40.0,34.3,32.35,WNW,292,1.0,3.0,80,0.00,,OVC075,0.03,VWS V14.00,2013-03-28 23:20:00,
2013-03-28 19:30:00,40.0,34.3,32.35,WNW,292,1.0,3.0,80,0.00,,OVC075,0.03,VWS V14.00,2013-03-28 23:30:00,
2013-03-28 19:40:00,40.0,33.7,32.36,WNW,292,0.0,2.0,78,0.00,,OVC075,0.03,VWS V14.00,2013-03-28 23:40:00,
2013-03-28 19:50:00,40.0,33.7,32.36,WNW,292,0.0,1.0,78,0.00,,OVC075,0.03,VWS V14.00,2013-03-28 23:50:00,
2013-03-28 20:00:00,40.0,32.7,32.37,WNW,292,2.0,3.0,75,0.00,,OVC075,0.03,VWS V14.00,2013-03-29 00:00:00,
2013-03-28 20:10:00,41.0,32.3,32.37,NW,315,6.0,7.0,71,0.00,,OVC060,0.03,VWS V14.00,2013-03-29 00:10:00,
2013-03-28 20:20:00,42.0,32.6,32.37,WNW,292,3.0,6.0,69,0.00,,OVC060,0.03,VWS V14.00,2013-03-29 00:20:00,
2013-03-28 20:30:00,42.0,32.2,32.39,NW,315,4.0,6.0,68,0.00,,OVC060,0.03,VWS V14.00,2013-03-29 00:30:00,
2013-03-28 20:40:00,42.0,31.9,32.40,North,360,5.0,8.0,67,0.00,,OVC060,0.03,VWS V14.00,2013-03-29 00:40:00,
2013-03-28 20:50:00,43.0,32.8,32.40,NW,315,4.0,8.0,67,0.00,,OVC060,0.03,VWS V14.00,2013-03-29 00:50:00,
2013-03-28 21:00:00,43.0,32.8,32.40,NNW,337,2.0,6.0,67,0.00,,OVC060,0.03,VWS V14.00,2013-03-29 01:00:00,
2013-03-28 21:10:00,43.0,32.8,32.41,NNE,22,3.0,6.0,67,0.00,,OVC046,0.03,VWS V14.00,2013-03-29 01:10:00,
2013-03-28 21:20:00,42.0,32.2,32.41,North,360,3.0,10.0,68,0.00,,OVC046,0.03,VWS V14.00,2013-03-29 01:20:00,
2013-03-28 21:30:00,43.0,33.9,32.42,NNW,337,6.0,10.0,70,0.00,,OVC046,0.03,VWS V14.00,2013-03-29 01:30:00,
2013-03-28 21:40:00,42.0,33.3,32.42,North,360,5.0,9.0,71,0.00,,OVC046,0.03,VWS V14.00,2013-03-29 01:40:00,
2013-03-28 21:50:00,42.0,34.0,32.42,North,360,3.0,9.0,73,0.00,,OVC046,0.03,VWS V14.00,2013-03-29 01:50:00,
2013-03-28 22:00:00,42.0,34.7,32.42,North,360,3.0,8.0,75,0.00,,OVC046,0.03,VWS V14.00,2013-03-29 02:00:00,
2013-03-28 22:10:00,41.0,34.0,32.42,North,360,3.0,7.0,76,0.00,,OVC095,0.03,VWS V14.00,2013-03-29 02:10:00,
2013-03-28 22:20:00,41.0,34.0,32.43,North,360,2.0,6.0,76,0.00,,OVC095,0.03,VWS V14.00,2013-03-29 02:20:00,
2013-03-28 22:30:00,41.0,34.7,32.43,NW,315,3.0,5.0,78,0.00,,OVC095,0.03,VWS V14.00,2013-03-29 02:30:00,
2013-03-28 22:40:00,41.0,35.0,32.42,NNW,337,1.0,4.0,79,0.00,,OVC095,0.03,VWS V14.00,2013-03-29 02:40:00,
2013-03-28 22:50:00,40.0,34.3,32.42,NNW,337,1.0,4.0,80,0.00,,OVC095,0.03,VWS V14.00,2013-03-29 02:50:00,
2013-03-28 23:00:00,40.0,34.3,32.43,NW,315,0.0,4.0,80,0.00,,OVC095,0.03,VWS V14.00,2013-03-29 03:00:00,
2013-03-28 23:10:00,40.0,34.7,32.42,NW,315,0.0,2.0,81,0.00,,OVC100,0.03,VWS V14.00,2013-03-29 03:10:00,
2013-03-28 23:20:00,39.0,34.0,32.42,NW,315,3.0,3.0,82,0.00,,OVC100,0.03,VWS V14.00,2013-03-29 03:20:00,
2013-03-28 23:30:00,39.0,34.3,32.43,NNW,337,1.0,3.0,83,0.00,,OVC100,0.03,VWS V14.00,2013-03-29 03:30:00,
2013-03-28 23:40:00,39.0,34.3,32.43,NNW,337,1.0,3.0,83,0.00,,OVC100,0.03,VWS V14.00,2013-03-29 03:40:00,
2013-03-28 23:50:00,39.0,34.3,32.43,NW,315,2.0,3.0,83,0.00,,OVC100,0.03,VWS V14.00,2013-03-29 03:50:00,